sensor_id;sensor_type;location;lat;lon;timestamp;pressure;altitude;pressure_sealevel;temperature;humidity
27425;BME280;15244;49.088;11.886;2023-03-14T00:00:28;94196.13;;;12.93;55.02
27425;BME280;15244;49.088;11.886;2023-03-14T00:05:30;94167.25;;;12.92;55.18
27425;BME280;15244;49.088;11.886;2023-03-14T00:10:31;94122.53;;;12.99;55.24
27425;BME280;15244;49.088;11.886;2023-03-14T00:15:34;94087.16;;;13.05;55.40
27425;BME280;15244;49.088;11.886;2023-03-14T00:20:35;94100.72;;;13.08;55.39
27425;BME280;15244;49.088;11.886;2023-03-14T00:25:37;94141.00;;;13.08;54.95
27425;BME280;15244;49.088;11.886;2023-03-14T00:30:39;94162.78;;;12.98;55.14
27425;BME280;15244;49.088;11.886;2023-03-14T00:35:43;94176.34;;;12.89;55.05
27425;BME280;15244;49.088;11.886;2023-03-14T00:40:44;94234.38;;;12.68;55.18
27425;BME280;15244;49.088;11.886;2023-03-14T00:45:46;94236.50;;;12.47;55.99
27425;BME280;15244;49.088;11.886;2023-03-14T00:50:48;94234.41;;;12.39;56.00
27425;BME280;15244;49.088;11.886;2023-03-14T00:55:50;94262.78;;;12.28;55.68
27425;BME280;15244;49.088;11.886;2023-03-14T01:00:51;94252.53;;;12.00;56.99
27425;BME280;15244;49.088;11.886;2023-03-14T01:05:53;94225.31;;;11.80;57.47
27425;BME280;15244;49.088;11.886;2023-03-14T01:10:55;94206.28;;;11.76;57.87
27425;BME280;15244;49.088;11.886;2023-03-14T01:16:06;94217.13;;;11.63;58.32
27425;BME280;15244;49.088;11.886;2023-03-14T01:21:26;94194.09;;;11.64;58.31
27425;BME280;15244;49.088;11.886;2023-03-14T01:26:30;94204.75;;;11.59;58.47
27425;BME280;15244;49.088;11.886;2023-03-14T01:31:32;94201.44;;;11.51;58.72
27425;BME280;15244;49.088;11.886;2023-03-14T01:36:34;94184.88;;;11.58;58.29
27425;BME280;15244;49.088;11.886;2023-03-14T01:41:36;94181.22;;;11.65;57.98
27425;BME280;15244;49.088;11.886;2023-03-14T01:46:39;94197.16;;;11.66;57.75
27425;BME280;15244;49.088;11.886;2023-03-14T01:52:02;94175.56;;;11.72;57.84
27425;BME280;15244;49.088;11.886;2023-03-14T01:57:10;94152.63;;;11.69;57.85
27425;BME280;15244;49.088;11.886;2023-03-14T02:02:13;94139.31;;;11.71;57.67
27425;BME280;15244;49.088;11.886;2023-03-14T02:07:26;94105.38;;;11.73;57.55
27425;BME280;15244;49.088;11.886;2023-03-14T02:12:42;94087.94;;;11.83;57.60
27425;BME280;15244;49.088;11.886;2023-03-14T02:17:49;94075.91;;;11.80;57.45
27425;BME280;15244;49.088;11.886;2023-03-14T02:23:43;94067.91;;;11.73;57.53
27425;BME280;15244;49.088;11.886;2023-03-14T02:28:50;94041.72;;;11.76;57.73
27425;BME280;15244;49.088;11.886;2023-03-14T02:33:52;94068.78;;;11.70;57.67
27425;BME280;15244;49.088;11.886;2023-03-14T02:39:12;94084.91;;;11.64;57.47
27425;BME280;15244;49.088;11.886;2023-03-14T02:44:18;94089.59;;;11.64;57.77
27425;BME280;15244;49.088;11.886;2023-03-14T02:49:19;94095.16;;;11.60;57.78
27425;BME280;15244;49.088;11.886;2023-03-14T02:54:21;94087.72;;;11.61;57.71
27425;BME280;15244;49.088;11.886;2023-03-14T02:59:24;94110.78;;;11.60;57.85
27425;BME280;15244;49.088;11.886;2023-03-14T03:04:30;94110.44;;;11.58;57.72
27425;BME280;15244;49.088;11.886;2023-03-14T03:09:31;94122.53;;;11.57;57.74
27425;BME280;15244;49.088;11.886;2023-03-14T03:14:33;94117.16;;;11.53;57.61
27425;BME280;15244;49.088;11.886;2023-03-14T03:19:38;94115.38;;;11.46;57.92
27425;BME280;15244;49.088;11.886;2023-03-14T03:24:39;94113.84;;;11.45;57.76
27425;BME280;15244;49.088;11.886;2023-03-14T03:29:41;94113.34;;;11.50;57.43
27425;BME280;15244;49.088;11.886;2023-03-14T03:34:43;94109.44;;;11.35;58.30
27425;BME280;15244;49.088;11.886;2023-03-14T03:39:45;94115.56;;;11.39;57.83
27425;BME280;15244;49.088;11.886;2023-03-14T03:44:47;94092.19;;;11.38;57.77
27425;BME280;15244;49.088;11.886;2023-03-14T03:49:49;94082.91;;;11.36;57.82
27425;BME280;15244;49.088;11.886;2023-03-14T03:54:51;94073.88;;;11.39;58.18
27425;BME280;15244;49.088;11.886;2023-03-14T03:59:53;94086.91;;;11.31;57.84
27425;BME280;15244;49.088;11.886;2023-03-14T04:04:54;94079.84;;;11.34;57.71
27425;BME280;15244;49.088;11.886;2023-03-14T04:09:56;94080.34;;;11.28;57.92
27425;BME280;15244;49.088;11.886;2023-03-14T04:15:18;94072.84;;;11.16;58.43
27425;BME280;15244;49.088;11.886;2023-03-14T04:20:23;94066.47;;;11.23;58.14
27425;BME280;15244;49.088;11.886;2023-03-14T04:25:26;94062.97;;;11.22;58.09
27425;BME280;15244;49.088;11.886;2023-03-14T04:30:30;94042.44;;;11.18;57.99
27425;BME280;15244;49.088;11.886;2023-03-14T04:35:55;94041.56;;;11.21;57.80
27425;BME280;15244;49.088;11.886;2023-03-14T04:40:57;94039.28;;;11.19;58.19
27425;BME280;15244;49.088;11.886;2023-03-14T04:46:04;94035.69;;;11.22;57.81
27425;BME280;15244;49.088;11.886;2023-03-14T04:51:06;94028.97;;;11.27;58.13
27425;BME280;15244;49.088;11.886;2023-03-14T04:56:08;94027.00;;;11.27;57.99
27425;BME280;15244;49.088;11.886;2023-03-14T05:01:12;94030.84;;;11.30;58.13
27425;BME280;15244;49.088;11.886;2023-03-14T05:06:33;94054.69;;;11.26;57.90
27425;BME280;15244;49.088;11.886;2023-03-14T05:11:42;94033.41;;;11.21;58.05
27425;BME280;15244;49.088;11.886;2023-03-14T05:16:55;94019.34;;;11.22;57.91
27425;BME280;15244;49.088;11.886;2023-03-14T05:22:12;94040.41;;;11.22;58.13
27425;BME280;15244;49.088;11.886;2023-03-14T05:27:25;94017.06;;;11.04;57.86
27425;BME280;15244;49.088;11.886;2023-03-14T05:32:46;94008.63;;;10.99;58.38
27425;BME280;15244;49.088;11.886;2023-03-14T05:37:58;94001.97;;;11.00;58.17
27425;BME280;15244;49.088;11.886;2023-03-14T05:43:09;94002.66;;;11.04;58.27
27425;BME280;15244;49.088;11.886;2023-03-14T05:48:29;93990.78;;;11.11;58.08
27425;BME280;15244;49.088;11.886;2023-03-14T05:53:49;93986.09;;;11.11;57.75
27425;BME280;15244;49.088;11.886;2023-03-14T05:59:07;94007.91;;;11.11;57.91
27425;BME280;15244;49.088;11.886;2023-03-14T06:04:26;94004.44;;;11.11;57.73
27425;BME280;15244;49.088;11.886;2023-03-14T06:09:32;94002.81;;;11.13;57.78
27425;BME280;15244;49.088;11.886;2023-03-14T06:14:35;94003.03;;;11.19;57.46
27425;BME280;15244;49.088;11.886;2023-03-14T06:19:37;94000.31;;;11.19;57.64
27425;BME280;15244;49.088;11.886;2023-03-14T06:24:39;94010.13;;;11.16;57.90
27425;BME280;15244;49.088;11.886;2023-03-14T06:29:40;94007.09;;;11.14;57.75
27425;BME280;15244;49.088;11.886;2023-03-14T06:34:42;93992.25;;;11.15;57.66
27425;BME280;15244;49.088;11.886;2023-03-14T06:39:43;94000.53;;;11.12;58.00
27425;BME280;15244;49.088;11.886;2023-03-14T06:44:54;94002.47;;;11.11;57.73
27425;BME280;15244;49.088;11.886;2023-03-14T06:49:57;94004.53;;;11.07;57.41
27425;BME280;15244;49.088;11.886;2023-03-14T06:54:59;94000.00;;;11.00;57.82
27425;BME280;15244;49.088;11.886;2023-03-14T07:00:02;94009.41;;;10.99;57.63
27425;BME280;15244;49.088;11.886;2023-03-14T07:05:04;94007.53;;;10.96;57.72
27425;BME280;15244;49.088;11.886;2023-03-14T07:10:08;93992.53;;;11.04;57.77
27425;BME280;15244;49.088;11.886;2023-03-14T07:15:10;93996.78;;;11.05;57.84
27425;BME280;15244;49.088;11.886;2023-03-14T07:20:23;93999.94;;;11.04;57.68
27425;BME280;15244;49.088;11.886;2023-03-14T07:25:26;94000.69;;;11.04;57.66
27425;BME280;15244;49.088;11.886;2023-03-14T07:30:28;94003.84;;;11.03;57.57
27425;BME280;15244;49.088;11.886;2023-03-14T07:35:31;94011.69;;;11.01;57.58
27425;BME280;15244;49.088;11.886;2023-03-14T07:40:33;94005.81;;;11.02;57.66
27425;BME280;15244;49.088;11.886;2023-03-14T07:45:36;94040.41;;;11.05;57.30
27425;BME280;15244;49.088;11.886;2023-03-14T07:50:43;94044.50;;;10.97;57.62
27425;BME280;15244;49.088;11.886;2023-03-14T07:55:45;94053.44;;;10.98;57.47
27425;BME280;15244;49.088;11.886;2023-03-14T08:00:48;94055.66;;;11.03;57.72
27425;BME280;15244;49.088;11.886;2023-03-14T08:05:50;94050.97;;;11.03;57.39
27425;BME280;15244;49.088;11.886;2023-03-14T08:10:52;94037.59;;;11.09;57.65
27425;BME280;15244;49.088;11.886;2023-03-14T08:15:53;94041.09;;;11.10;57.68
27425;BME280;15244;49.088;11.886;2023-03-14T08:20:55;94032.16;;;11.09;57.43
27425;BME280;15244;49.088;11.886;2023-03-14T08:25:57;94019.28;;;11.10;57.41
27425;BME280;15244;49.088;11.886;2023-03-14T08:30:59;94014.16;;;11.12;57.33
27425;BME280;15244;49.088;11.886;2023-03-14T08:36:01;94013.47;;;11.07;57.14
27425;BME280;15244;49.088;11.886;2023-03-14T08:41:03;94006.22;;;11.17;57.49
27425;BME280;15244;49.088;11.886;2023-03-14T08:46:05;94002.03;;;11.13;56.90
27425;BME280;15244;49.088;11.886;2023-03-14T08:51:07;94007.16;;;11.27;56.82
27425;BME280;15244;49.088;11.886;2023-03-14T08:56:09;94003.97;;;11.28;56.90
27425;BME280;15244;49.088;11.886;2023-03-14T09:01:11;94006.28;;;11.30;56.79
27425;BME280;15244;49.088;11.886;2023-03-14T09:06:13;93996.47;;;11.33;56.94
27425;BME280;15244;49.088;11.886;2023-03-14T09:11:15;94002.84;;;11.42;56.54
27425;BME280;15244;49.088;11.886;2023-03-14T09:16:16;93990.53;;;11.50;56.53
27425;BME280;15244;49.088;11.886;2023-03-14T09:21:18;93999.53;;;11.64;56.53
27425;BME280;15244;49.088;11.886;2023-03-14T09:26:19;94001.06;;;11.65;56.28
27425;BME280;15244;49.088;11.886;2023-03-14T09:31:21;94009.25;;;11.65;56.33
27425;BME280;15244;49.088;11.886;2023-03-14T09:36:23;94003.00;;;11.64;56.44
27425;BME280;15244;49.088;11.886;2023-03-14T09:41:27;94005.47;;;11.75;56.41
27425;BME280;15244;49.088;11.886;2023-03-14T09:46:31;94016.00;;;11.89;56.16
27425;BME280;15244;49.088;11.886;2023-03-14T09:51:37;94006.97;;;11.92;55.91
27425;BME280;15244;49.088;11.886;2023-03-14T09:56:39;94014.16;;;11.99;56.04
27425;BME280;15244;49.088;11.886;2023-03-14T10:01:40;93996.81;;;12.06;55.86
27425;BME280;15244;49.088;11.886;2023-03-14T10:06:42;94000.88;;;12.14;56.14
27425;BME280;15244;49.088;11.886;2023-03-14T10:11:43;93998.81;;;12.18;55.71
27425;BME280;15244;49.088;11.886;2023-03-14T10:16:45;93983.50;;;12.21;55.33
27425;BME280;15244;49.088;11.886;2023-03-14T10:21:53;93966.78;;;12.31;55.41
27425;BME280;15244;49.088;11.886;2023-03-14T10:27:04;93953.13;;;12.19;54.61
27425;BME280;15244;49.088;11.886;2023-03-14T10:32:06;93962.09;;;12.32;54.43
27425;BME280;15244;49.088;11.886;2023-03-14T10:37:21;93953.44;;;12.46;54.65
27425;BME280;15244;49.088;11.886;2023-03-14T10:42:26;93962.81;;;12.58;54.53
27425;BME280;15244;49.088;11.886;2023-03-14T10:47:31;93946.97;;;12.53;54.36
27425;BME280;15244;49.088;11.886;2023-03-14T10:52:33;93961.06;;;12.77;54.31
27425;BME280;15244;49.088;11.886;2023-03-14T10:57:57;93950.41;;;12.92;54.33
27425;BME280;15244;49.088;11.886;2023-03-14T11:03:08;93961.31;;;13.05;54.00
27425;BME280;15244;49.088;11.886;2023-03-14T11:13:43;93956.19;;;13.07;53.07
27425;BME280;15244;49.088;11.886;2023-03-14T11:19:17;93951.91;;;13.06;52.91
27425;BME280;15244;49.088;11.886;2023-03-14T11:24:33;93961.75;;;13.03;52.88
27425;BME280;15244;49.088;11.886;2023-03-14T11:29:40;93950.75;;;12.94;52.39
27425;BME280;15244;49.088;11.886;2023-03-14T11:34:53;93953.00;;;13.08;52.55
27425;BME280;15244;49.088;11.886;2023-03-14T11:40:30;93961.38;;;13.14;52.08
27425;BME280;15244;49.088;11.886;2023-03-14T11:45:35;93938.75;;;13.13;51.98
27425;BME280;15244;49.088;11.886;2023-03-14T11:50:38;93929.72;;;13.26;52.24
27425;BME280;15244;49.088;11.886;2023-03-14T11:55:42;93924.59;;;13.28;51.91
27425;BME280;15244;49.088;11.886;2023-03-14T12:00:46;93921.47;;;13.04;51.48
27425;BME280;15244;49.088;11.886;2023-03-14T12:11:50;93921.19;;;13.23;51.79
27425;BME280;15244;49.088;11.886;2023-03-14T12:17:03;93922.22;;;13.17;51.52
27425;BME280;15244;49.088;11.886;2023-03-14T12:22:07;93917.41;;;13.08;51.94
27425;BME280;15244;49.088;11.886;2023-03-14T12:27:13;93927.03;;;13.13;52.15
27425;BME280;15244;49.088;11.886;2023-03-14T12:32:34;93925.31;;;13.06;52.61
27425;BME280;15244;49.088;11.886;2023-03-14T12:37:37;93905.84;;;13.04;53.24
27425;BME280;15244;49.088;11.886;2023-03-14T12:42:56;93909.63;;;13.19;53.77
27425;BME280;15244;49.088;11.886;2023-03-14T12:48:09;93901.38;;;13.32;53.85
27425;BME280;15244;49.088;11.886;2023-03-14T12:53:33;93893.03;;;13.36;53.80
27425;BME280;15244;49.088;11.886;2023-03-14T12:58:44;93895.97;;;13.41;53.97
27425;BME280;15244;49.088;11.886;2023-03-14T13:03:55;93898.13;;;13.47;53.53
27425;BME280;15244;49.088;11.886;2023-03-14T13:08:58;93884.94;;;13.54;53.48
27425;BME280;15244;49.088;11.886;2023-03-14T13:13:59;93885.91;;;13.60;53.39
27425;BME280;15244;49.088;11.886;2023-03-14T13:19:06;93918.56;;;13.55;53.24
27425;BME280;15244;49.088;11.886;2023-03-14T13:24:24;93902.78;;;13.37;54.10
27425;BME280;15244;49.088;11.886;2023-03-14T13:29:28;93888.97;;;13.40;54.29
27425;BME280;15244;49.088;11.886;2023-03-14T13:34:34;93893.53;;;13.43;54.33
27425;BME280;15244;49.088;11.886;2023-03-14T13:39:40;93897.59;;;13.39;54.29
27425;BME280;15244;49.088;11.886;2023-03-14T13:44:41;93911.75;;;13.37;54.04
27425;BME280;15244;49.088;11.886;2023-03-14T13:49:44;93937.53;;;13.27;54.22
27425;BME280;15244;49.088;11.886;2023-03-14T13:54:46;93984.56;;;12.87;54.34
27425;BME280;15244;49.088;11.886;2023-03-14T14:00:17;93963.28;;;12.56;54.77
27425;BME280;15244;49.088;11.886;2023-03-14T14:05:19;93976.19;;;12.43;54.84
27425;BME280;15244;49.088;11.886;2023-03-14T14:10:21;93991.47;;;12.28;55.15
27425;BME280;15244;49.088;11.886;2023-03-14T14:15:26;94007.97;;;12.11;55.87
27425;BME280;15244;49.088;11.886;2023-03-14T14:20:36;94011.34;;;12.03;55.68
27425;BME280;15244;49.088;11.886;2023-03-14T14:25:39;94007.06;;;12.02;55.66
27425;BME280;15244;49.088;11.886;2023-03-14T14:30:41;94027.19;;;11.95;55.98
27425;BME280;15244;49.088;11.886;2023-03-14T14:35:59;94029.59;;;11.77;56.42
27425;BME280;15244;49.088;11.886;2023-03-14T14:41:02;94023.66;;;11.65;56.56
27425;BME280;15244;49.088;11.886;2023-03-14T14:46:06;94049.19;;;11.59;56.64
27425;BME280;15244;49.088;11.886;2023-03-14T14:51:09;94035.47;;;11.46;56.70
27425;BME280;15244;49.088;11.886;2023-03-14T14:56:17;94042.41;;;11.34;57.05
27425;BME280;15244;49.088;11.886;2023-03-14T15:01:22;94055.56;;;11.23;56.93
27425;BME280;15244;49.088;11.886;2023-03-14T15:06:28;94058.13;;;11.30;57.11
27425;BME280;15244;49.088;11.886;2023-03-14T15:11:30;94116.75;;;11.05;58.15
27425;BME280;15244;49.088;11.886;2023-03-14T15:16:31;94091.63;;;10.81;58.47
27425;BME280;15244;49.088;11.886;2023-03-14T15:21:33;94116.81;;;10.69;58.21
27425;BME280;15244;49.088;11.886;2023-03-14T15:26:35;94146.59;;;10.40;59.05
27425;BME280;15244;49.088;11.886;2023-03-14T15:31:36;94173.13;;;10.16;58.56
27425;BME280;15244;49.088;11.886;2023-03-14T15:36:38;94195.69;;;10.16;57.73
27425;BME280;15244;49.088;11.886;2023-03-14T15:41:40;94228.44;;;9.89;57.72
27425;BME280;15244;49.088;11.886;2023-03-14T15:46:41;94251.75;;;9.67;57.49
27425;BME280;15244;49.088;11.886;2023-03-14T15:51:43;94267.84;;;9.30;56.41
27425;BME280;15244;49.088;11.886;2023-03-14T15:56:44;94264.72;;;9.32;55.92
27425;BME280;15244;49.088;11.886;2023-03-14T16:01:46;94285.19;;;9.40;55.61
27425;BME280;15244;49.088;11.886;2023-03-14T16:06:49;94284.06;;;9.38;55.57
27425;BME280;15244;49.088;11.886;2023-03-14T16:11:51;94298.13;;;9.32;55.02
27425;BME280;15244;49.088;11.886;2023-03-14T16:16:52;94323.38;;;9.33;54.70
27425;BME280;15244;49.088;11.886;2023-03-14T16:21:56;94322.97;;;9.35;53.73
27425;BME280;15244;49.088;11.886;2023-03-14T16:26:58;94345.28;;;9.22;52.78
27425;BME280;15244;49.088;11.886;2023-03-14T16:31:59;94384.63;;;9.14;52.33
27425;BME280;15244;49.088;11.886;2023-03-14T16:37:01;94383.88;;;9.10;52.17
27425;BME280;15244;49.088;11.886;2023-03-14T16:42:03;94386.66;;;9.06;51.57
27425;BME280;15244;49.088;11.886;2023-03-14T16:47:05;94410.41;;;8.99;51.23
27425;BME280;15244;49.088;11.886;2023-03-14T16:52:11;94407.34;;;8.97;50.85
27425;BME280;15244;49.088;11.886;2023-03-14T16:57:12;94433.03;;;8.88;50.50
27425;BME280;15244;49.088;11.886;2023-03-14T17:02:14;94439.97;;;8.97;50.62
27425;BME280;15244;49.088;11.886;2023-03-14T17:07:16;94467.69;;;8.77;49.45
27425;BME280;15244;49.088;11.886;2023-03-14T17:12:18;94457.66;;;8.71;48.94
27425;BME280;15244;49.088;11.886;2023-03-14T17:17:19;94485.91;;;8.84;49.19
27425;BME280;15244;49.088;11.886;2023-03-14T17:22:21;94490.19;;;8.81;49.01
27425;BME280;15244;49.088;11.886;2023-03-14T17:27:27;94521.66;;;8.75;48.72
27425;BME280;15244;49.088;11.886;2023-03-14T17:32:29;94527.16;;;8.68;48.59
27425;BME280;15244;49.088;11.886;2023-03-14T17:37:31;94540.75;;;8.68;48.24
27425;BME280;15244;49.088;11.886;2023-03-14T17:42:32;94551.25;;;8.66;47.96
27425;BME280;15244;49.088;11.886;2023-03-14T17:47:34;94573.00;;;8.62;47.81
27425;BME280;15244;49.088;11.886;2023-03-14T17:52:36;94576.44;;;8.70;48.10
27425;BME280;15244;49.088;11.886;2023-03-14T17:57:38;94579.59;;;8.68;48.07
27425;BME280;15244;49.088;11.886;2023-03-14T18:02:40;94611.34;;;8.79;47.69
27425;BME280;15244;49.088;11.886;2023-03-14T18:07:42;94619.06;;;8.80;47.54
27425;BME280;15244;49.088;11.886;2023-03-14T18:12:44;94652.88;;;8.79;47.72
27425;BME280;15244;49.088;11.886;2023-03-14T18:17:46;94646.59;;;8.86;47.38
27425;BME280;15244;49.088;11.886;2023-03-14T18:22:47;94663.31;;;8.84;47.50
27425;BME280;15244;49.088;11.886;2023-03-14T18:27:49;94673.03;;;8.82;47.31
27425;BME280;15244;49.088;11.886;2023-03-14T18:32:50;94679.25;;;8.82;47.16
27425;BME280;15244;49.088;11.886;2023-03-14T18:37:52;94683.53;;;8.80;47.15
27425;BME280;15244;49.088;11.886;2023-03-14T18:42:54;94703.69;;;8.86;46.87
27425;BME280;15244;49.088;11.886;2023-03-14T18:47:56;94704.50;;;8.79;46.61
27425;BME280;15244;49.088;11.886;2023-03-14T18:52:58;94726.25;;;8.79;46.48
27425;BME280;15244;49.088;11.886;2023-03-14T18:58:00;94722.38;;;8.73;46.51
27425;BME280;15244;49.088;11.886;2023-03-14T19:03:03;94732.13;;;8.67;45.88
27425;BME280;15244;49.088;11.886;2023-03-14T19:08:04;94735.22;;;8.65;45.88
27425;BME280;15244;49.088;11.886;2023-03-14T19:13:06;94741.44;;;8.70;45.77
27425;BME280;15244;49.088;11.886;2023-03-14T19:18:08;94753.81;;;8.78;45.73
27425;BME280;15244;49.088;11.886;2023-03-14T19:23:11;94768.91;;;8.86;45.68
27425;BME280;15244;49.088;11.886;2023-03-14T19:28:14;94775.88;;;8.90;45.62
27425;BME280;15244;49.088;11.886;2023-03-14T19:33:16;94782.09;;;8.95;45.80
27425;BME280;15244;49.088;11.886;2023-03-14T19:38:18;94786.34;;;8.99;45.57
27425;BME280;15244;49.088;11.886;2023-03-14T19:43:20;94796.41;;;8.99;45.62
27425;BME280;15244;49.088;11.886;2023-03-14T19:48:22;94808.44;;;9.01;45.36
27425;BME280;15244;49.088;11.886;2023-03-14T19:53:30;94812.34;;;9.00;45.46
27425;BME280;15244;49.088;11.886;2023-03-14T19:58:33;94820.13;;;8.98;45.45
27425;BME280;15244;49.088;11.886;2023-03-14T20:03:35;94845.75;;;9.01;45.40
27425;BME280;15244;49.088;11.886;2023-03-14T20:08:37;94837.25;;;8.92;45.43
27425;BME280;15244;49.088;11.886;2023-03-14T20:13:39;94833.34;;;8.93;45.33
27425;BME280;15244;49.088;11.886;2023-03-14T20:18:41;94834.06;;;9.04;45.27
27425;BME280;15244;49.088;11.886;2023-03-14T20:23:43;94844.56;;;9.05;44.96
27425;BME280;15244;49.088;11.886;2023-03-14T20:28:44;94848.84;;;9.06;44.86
27425;BME280;15244;49.088;11.886;2023-03-14T20:33:47;94851.16;;;9.11;44.73
27425;BME280;15244;49.088;11.886;2023-03-14T20:38:52;94866.66;;;9.18;44.66
27425;BME280;15244;49.088;11.886;2023-03-14T20:43:53;94869.72;;;9.24;44.63
27425;BME280;15244;49.088;11.886;2023-03-14T20:48:55;94872.03;;;9.29;44.73
27425;BME280;15244;49.088;11.886;2023-03-14T20:53:57;94877.47;;;9.29;44.45
27425;BME280;15244;49.088;11.886;2023-03-14T20:58:58;94882.91;;;9.29;44.30
27425;BME280;15244;49.088;11.886;2023-03-14T21:04:00;94881.75;;;9.26;44.48
27425;BME280;15244;49.088;11.886;2023-03-14T21:09:01;94888.00;;;9.27;44.28
27425;BME280;15244;49.088;11.886;2023-03-14T21:14:05;94882.94;;;9.25;44.15
27425;BME280;15244;49.088;11.886;2023-03-14T21:19:07;94886.81;;;9.28;44.41
27425;BME280;15244;49.088;11.886;2023-03-14T21:24:09;94889.16;;;9.29;44.17
27425;BME280;15244;49.088;11.886;2023-03-14T21:29:10;94895.75;;;9.32;44.08
27425;BME280;15244;49.088;11.886;2023-03-14T21:34:12;94894.19;;;9.31;44.23
27425;BME280;15244;49.088;11.886;2023-03-14T21:39:13;94893.03;;;9.32;44.45
27425;BME280;15244;49.088;11.886;2023-03-14T21:44:15;94889.13;;;9.33;44.26
27425;BME280;15244;49.088;11.886;2023-03-14T21:49:19;94888.75;;;9.31;44.46
27425;BME280;15244;49.088;11.886;2023-03-14T21:54:20;94892.66;;;9.30;44.33
27425;BME280;15244;49.088;11.886;2023-03-14T21:59:22;94893.03;;;9.28;44.42
27425;BME280;15244;49.088;11.886;2023-03-14T22:04:24;94901.97;;;9.29;44.57
27425;BME280;15244;49.088;11.886;2023-03-14T22:09:26;94908.59;;;9.28;44.46
27425;BME280;15244;49.088;11.886;2023-03-14T22:14:28;94901.97;;;9.29;44.60
27425;BME280;15244;49.088;11.886;2023-03-14T22:19:30;94909.34;;;9.28;44.63
27425;BME280;15244;49.088;11.886;2023-03-14T22:24:35;94906.25;;;9.26;44.56
27425;BME280;15244;49.088;11.886;2023-03-14T22:29:36;94912.47;;;9.27;44.81
27425;BME280;15244;49.088;11.886;2023-03-14T22:34:38;94907.44;;;9.25;44.63
27425;BME280;15244;49.088;11.886;2023-03-14T22:39:40;94918.31;;;9.18;45.00
27425;BME280;15244;49.088;11.886;2023-03-14T22:44:41;94919.16;;;9.01;45.25
27425;BME280;15244;49.088;11.886;2023-03-14T22:49:43;94926.19;;;8.87;45.83
27425;BME280;15244;49.088;11.886;2023-03-14T22:54:44;94915.31;;;8.73;45.90
27425;BME280;15244;49.088;11.886;2023-03-14T22:59:46;94924.69;;;8.68;46.21
27425;BME280;15244;49.088;11.886;2023-03-14T23:04:48;94933.22;;;8.53;46.38
27425;BME280;15244;49.088;11.886;2023-03-14T23:09:49;94946.34;;;8.08;47.33
27425;BME280;15244;49.088;11.886;2023-03-14T23:14:51;94962.97;;;7.77;48.43
27425;BME280;15244;49.088;11.886;2023-03-14T23:19:54;94970.34;;;7.70;48.29
27425;BME280;15244;49.088;11.886;2023-03-14T23:24:56;94972.22;;;7.62;48.30
27425;BME280;15244;49.088;11.886;2023-03-14T23:29:57;94990.03;;;7.56;48.94
27425;BME280;15244;49.088;11.886;2023-03-14T23:34:59;94997.72;;;7.47;49.18
27425;BME280;15244;49.088;11.886;2023-03-14T23:40:01;95007.00;;;7.38;49.04
27425;BME280;15244;49.088;11.886;2023-03-14T23:45:04;94994.94;;;7.22;49.53
27425;BME280;15244;49.088;11.886;2023-03-14T23:50:06;94994.06;;;7.14;49.60
27425;BME280;15244;49.088;11.886;2023-03-14T23:55:08;95016.09;;;7.02;49.94
